CDT,Max TemperatureF,Mean TemperatureF,Min TemperatureF,Max Dew PointF,MeanDew PointF,Min DewpointF,Max Humidity, Mean Humidity, Min Humidity, Max Sea Level PressureIn, Mean Sea Level PressureIn, Min Sea Level PressureIn, Max VisibilityMiles, Mean VisibilityMiles, Min VisibilityMiles, Max Wind SpeedMPH, Mean Wind SpeedMPH, Max Gust SpeedMPH,PrecipitationIn, CloudCover, Events, WindDirDegrees
2013-3-1,26,17,8,16,12,7,100,81,59,30.36,30.32,30.23,10,10,7,9,7,,0.00,1,,9
2013-3-2,24,14,3,16,9,0,92,78,54,30.33,30.23,30.09,10,10,5,10,5,,0.00,3,,110
2013-3-3,28,19,10,19,15,9,92,75,59,30.08,29.96,29.89,10,10,3,21,12,29,0.00,3,Snow,113
2013-3-4,24,22,21,21,20,19,100,92,86,29.96,29.89,29.84,10,4,1,24,19,30,0.00,7,Snow,110
2013-3-5,30,22,12,23,20,12,100,89,64,30.31,30.11,29.92,10,6,1,14,10,,0.02,7,Snow,353
2013-3-6,24,16,6,16,13,3,100,85,69,30.39,30.34,30.30,10,8,0,10,4,,0.00,6,Fog-Snow,339
2013-3-7,26,14,1,19,11,-2,100,85,69,30.32,30.26,30.18,10,6,0,20,7,22,0.00,4,Fog-Snow,113
2013-3-8,30,20,10,28,19,10,100,87,64,30.23,30.17,30.01,10,4,1,13,7,,0.06,1,,99
2013-3-9,33,32,30,34,32,28,100,95,87,30.00,29.80,29.68,10,3,0,17,7,24,0.95,8,Fog-Rain-Snow,58
2013-3-10,28,22,15,27,21,12,93,86,74,30.05,29.97,29.84,10,8,4,21,15,28,0.00,7,,347
2013-3-11,24,16,8,18,13,7,92,81,69,29.97,29.85,29.78,10,10,10,15,9,,0.00,5,,307
2013-3-12,23,18,12,18,14,9,93,85,74,30.23,30.01,29.82,10,9,4,29,12,34,0.00,4,Snow,305
2013-3-13,24,14,3,19,11,0,100,82,59,30.35,30.27,30.14,10,10,1,12,6,,0.00,2,Snow,231
2013-3-14,35,28,21,27,24,19,100,86,70,30.14,30.06,29.99,10,7,0,17,9,,0.00,3,Fog-Snow,141
2013-3-15,30,26,21,28,26,19,100,93,86,30.00,29.92,29.83,10,5,0,14,9,,0.15,8,Snow,36
2013-3-16,21,10,0,19,6,-4,93,81,67,30.24,30.12,29.95,10,10,5,16,9,21,0.00,2,Snow,321
2013-3-17,23,10,-4,21,5,-8,93,79,67,30.24,30.02,29.66,10,9,1,28,12,32,0.00,4,Snow,96
2013-3-18,30,18,6,30,14,3,100,89,79,29.87,29.65,29.49,3,1,0,36,26,43,0.01,8,Snow,260
2013-3-19,12,6,0,3,-1,-6,85,73,57,30.23,30.08,29.87,10,9,2,26,20,31,0.00,1,Snow,295
2013-3-20,14,6,-2,3,-1,-8,85,74,62,30.26,30.20,30.12,10,10,10,24,17,28,0.00,0,,294
2013-3-21,21,10,-2,9,2,-6,92,73,54,30.11,30.07,30.03,10,10,10,9,5,,0.00,0,,1
2013-3-22,28,16,3,18,9,1,92,74,47,30.09,30.05,30.03,10,10,10,8,4,,0.00,0,,334
2013-3-23,30,19,8,21,14,7,93,78,64,30.15,30.11,30.07,10,10,10,12,7,,0.00,2,,298
2013-3-24,32,24,15,27,20,14,93,85,69,30.12,30.06,30.03,10,7,2,15,8,18,0.00,6,Snow,341
2013-3-25,33,24,15,21,19,12,93,75,55,30.27,30.18,30.09,10,10,10,20,12,20,0.00,4,Snow,320
2013-3-26,32,20,8,21,14,7,93,79,55,30.29,30.27,30.25,10,10,10,10,6,,0.00,0,,308
2013-3-27,35,24,12,25,17,10,100,75,52,30.31,30.29,30.27,10,10,7,10,4,,0.00,1,,102
2013-3-28,37,28,19,28,23,16,93,78,60,30.30,30.26,30.23,10,10,10,14,8,,0.00,4,,110
2013-3-29,42,35,28,36,32,27,100,87,70,30.23,30.14,29.96,10,7,2,13,7,,0.00,4,Rain,118
2013-3-30,42,36,30,37,33,30,100,93,81,29.95,29.90,29.85,10,3,0,16,10,34,0.19,5,Fog-Rain-Thunderstorm,265
2013-3-31,32,24,17,30,21,10,100,79,59,30.15,29.96,29.81,10,8,0,28,16,33,0.00,3,Fog,303